createdAt,value
2022-08-10T00:00:28.478Z,18.81
2022-08-10T00:01:28.536Z,18.80
2022-08-10T00:02:28.476Z,18.77
2022-08-10T00:03:28.449Z,18.77
2022-08-10T00:04:28.436Z,18.70
2022-08-10T00:05:28.426Z,18.77
2022-08-10T00:06:29.415Z,18.74
2022-08-10T00:07:28.418Z,18.75
2022-08-10T00:08:28.398Z,18.66
2022-08-10T00:09:28.387Z,18.71
2022-08-10T00:10:28.370Z,18.66
2022-08-10T00:11:28.355Z,18.66
2022-08-10T00:12:53.146Z,18.68
2022-08-10T00:13:29.343Z,18.58
2022-08-10T00:14:28.319Z,18.63
2022-08-10T00:15:52.335Z,18.60
2022-08-10T00:16:29.296Z,18.59
2022-08-10T00:17:28.310Z,18.53
2022-08-10T00:18:34.473Z,18.50
2022-08-10T00:19:29.264Z,18.50
2022-08-10T00:20:29.252Z,18.49
2022-08-10T00:21:28.244Z,18.43
2022-08-10T00:22:28.252Z,18.52
2022-08-10T00:23:28.228Z,18.49
2022-08-10T00:24:28.214Z,18.41
2022-08-10T00:25:28.209Z,18.43
2022-08-10T00:27:58.611Z,18.40
2022-08-10T00:28:01.109Z,18.37
2022-08-10T00:28:29.179Z,18.38
2022-08-10T00:29:28.155Z,18.34
2022-08-10T00:30:28.147Z,18.33
2022-08-10T00:31:28.145Z,18.33
2022-08-10T00:32:28.131Z,18.29
2022-08-10T00:33:28.147Z,18.37
2022-08-10T00:34:28.101Z,18.28
2022-08-10T00:35:28.094Z,18.22
2022-08-10T00:36:28.079Z,18.22
2022-08-10T00:37:28.076Z,18.18
2022-08-10T00:38:28.070Z,18.26
2022-08-10T00:39:28.133Z,18.19
2022-08-10T00:40:37.303Z,18.22
2022-08-10T00:41:29.030Z,18.11
2022-08-10T00:42:28.009Z,18.05
2022-08-10T00:43:28.010Z,18.01
2022-08-10T00:44:27.999Z,18.04
2022-08-10T00:45:27.981Z,18.08
2022-08-10T00:46:27.965Z,18.13
2022-08-10T00:47:36.835Z,18.05
2022-08-10T00:48:28.966Z,18.07
2022-08-10T00:49:27.939Z,18.07
2022-08-10T00:50:27.927Z,17.92
2022-08-10T00:51:40.419Z,18.07
2022-08-10T00:52:28.896Z,18.00
2022-08-10T00:53:27.889Z,18.04
2022-08-10T00:54:27.884Z,17.90
2022-08-10T00:55:27.870Z,17.95
2022-08-10T00:57:12.348Z,17.97
2022-08-10T00:57:28.848Z,17.90
2022-08-10T00:58:27.837Z,17.97
2022-08-10T00:59:27.852Z,17.92
2022-08-10T01:00:27.813Z,18.00
2022-08-10T01:02:08.826Z,18.00
2022-08-10T01:02:28.955Z,17.94
2022-08-10T01:04:39.996Z,17.92
2022-08-10T01:04:39.997Z,17.92
2022-08-10T01:05:28.759Z,17.97
2022-08-10T01:06:27.742Z,17.94
2022-08-10T01:07:27.745Z,17.98
2022-08-10T01:08:27.725Z,17.92
2022-08-10T01:09:27.708Z,17.98
2022-08-10T01:10:27.706Z,17.86
2022-08-10T01:12:28.623Z,17.86
2022-08-10T01:12:47.624Z,17.83
2022-08-10T01:13:28.668Z,17.86
2022-08-10T01:14:27.650Z,17.80
2022-08-10T01:15:27.660Z,17.80
2022-08-10T01:16:27.631Z,17.85
2022-08-10T01:17:50.896Z,17.80
2022-08-10T01:18:28.610Z,17.83
2022-08-10T01:19:27.609Z,17.82
2022-08-10T01:20:31.052Z,17.79
2022-08-10T01:21:27.575Z,17.83
2022-08-10T01:22:27.580Z,17.83
2022-08-10T01:23:27.553Z,17.74
2022-08-10T01:24:27.539Z,17.71
2022-08-10T01:25:27.555Z,17.76
2022-08-10T01:26:31.283Z,17.79
2022-08-10T01:27:27.688Z,17.74
2022-08-10T01:28:27.493Z,17.78
2022-08-10T01:29:27.485Z,17.72
2022-08-10T01:30:27.486Z,17.72
2022-08-10T01:31:27.480Z,17.72
2022-08-10T01:32:27.452Z,17.70
2022-08-10T01:33:31.796Z,17.68
2022-08-10T01:34:28.444Z,17.72
2022-08-10T01:35:27.425Z,17.63
2022-08-10T01:36:31.887Z,17.63
2022-08-10T01:37:28.423Z,17.57
2022-08-10T01:38:27.390Z,17.60
2022-08-10T01:39:27.460Z,17.52
2022-08-10T01:40:27.363Z,17.60
2022-08-10T01:41:27.382Z,17.54
2022-08-10T01:42:28.339Z,17.49
2022-08-10T01:43:27.330Z,17.48
2022-08-10T01:44:27.326Z,17.33
2022-08-10T01:45:27.318Z,17.49
2022-08-10T01:46:27.314Z,17.33
2022-08-10T01:47:27.475Z,17.41
2022-08-10T01:48:27.275Z,17.36
2022-08-10T01:49:27.324Z,17.44
2022-08-10T01:50:27.263Z,17.39
2022-08-10T01:51:27.699Z,17.38
2022-08-10T01:52:27.240Z,17.36
2022-08-10T01:53:27.263Z,17.38
2022-08-10T01:54:28.204Z,17.33
2022-08-10T01:55:27.198Z,17.36
2022-08-10T01:56:27.184Z,17.34
2022-08-10T01:57:27.231Z,17.27
2022-08-10T01:58:27.187Z,17.30
2022-08-10T01:59:34.225Z,17.20
2022-08-10T02:00:27.156Z,17.29
2022-08-10T02:01:27.170Z,17.33
2022-08-10T02:02:27.158Z,17.29
2022-08-10T02:03:27.106Z,17.22
2022-08-10T02:04:27.089Z,17.22
2022-08-10T02:05:27.088Z,17.23
2022-08-10T02:06:27.150Z,17.23
2022-08-10T02:07:27.071Z,17.11
2022-08-10T02:08:27.044Z,17.16
2022-08-10T02:09:27.039Z,17.20
2022-08-10T02:10:27.021Z,17.14
2022-08-10T02:11:27.015Z,17.14
2022-08-10T02:12:28.031Z,17.08
2022-08-10T02:13:27.009Z,17.15
2022-08-10T02:14:33.584Z,17.15
2022-08-10T02:15:26.981Z,17.04
2022-08-10T02:16:26.957Z,17.04
2022-08-10T02:17:57.571Z,17.06
2022-08-10T02:18:27.962Z,16.99
2022-08-10T02:19:26.929Z,17.09
2022-08-10T02:20:26.916Z,17.04
2022-08-10T02:21:26.903Z,17.06
2022-08-10T02:22:35.956Z,16.94
2022-08-10T02:23:27.889Z,17.08
2022-08-10T02:24:26.874Z,17.01
2022-08-10T02:25:40.829Z,16.99
2022-08-10T02:26:27.859Z,16.93
2022-08-10T02:27:26.840Z,16.99
2022-08-10T02:28:30.358Z,16.94
2022-08-10T02:29:26.819Z,17.05
2022-08-10T02:30:26.816Z,16.93
2022-08-10T02:31:26.792Z,17.02
2022-08-10T02:32:36.547Z,16.94
2022-08-10T02:33:27.781Z,16.96
2022-08-10T02:34:26.761Z,16.96
2022-08-10T02:35:26.864Z,16.96
2022-08-10T02:36:26.732Z,16.93
2022-08-10T02:37:26.733Z,16.87
2022-08-10T02:38:59.299Z,16.87
2022-08-10T02:39:27.745Z,16.86
2022-08-10T02:42:18.402Z,16.84
2022-08-10T02:45:18.298Z,16.87
2022-08-10T02:45:20.242Z,16.86
2022-08-10T02:45:23.959Z,16.87
2022-08-10T02:45:27.433Z,16.89
2022-08-10T02:45:30.868Z,16.90
2022-08-10T02:46:26.622Z,16.86
2022-08-10T02:47:26.628Z,16.87
2022-08-10T02:48:26.603Z,16.83
2022-08-10T02:49:26.608Z,16.86
2022-08-10T02:50:26.595Z,16.84
2022-08-10T02:52:06.380Z,16.89
2022-08-10T02:52:27.582Z,16.86
2022-08-10T02:53:54.250Z,16.86
2022-08-10T02:54:27.533Z,16.83
2022-08-10T02:55:27.185Z,16.86
2022-08-10T02:56:26.528Z,16.83
2022-08-10T02:57:26.505Z,16.84
2022-08-10T02:58:26.497Z,16.84
2022-08-10T02:59:26.502Z,16.87
2022-08-10T03:00:27.476Z,16.84
2022-08-10T03:01:26.526Z,16.81
2022-08-10T03:02:26.528Z,16.84
2022-08-10T03:03:26.428Z,16.84
2022-08-10T03:04:55.416Z,16.83
2022-08-10T03:05:27.406Z,16.76
2022-08-10T03:06:26.394Z,16.75
2022-08-10T03:07:43.648Z,16.79
2022-08-10T03:08:27.373Z,16.75
2022-08-10T03:09:26.380Z,16.64
2022-08-10T03:10:26.371Z,16.65
2022-08-10T03:12:36.535Z,16.66
2022-08-10T03:12:38.217Z,16.68
2022-08-10T03:13:27.329Z,16.68
2022-08-10T03:14:26.326Z,16.69
2022-08-10T03:15:26.301Z,16.72
2022-08-10T03:16:26.297Z,16.68
2022-08-10T03:17:27.295Z,16.65
2022-08-10T03:18:26.275Z,16.65
2022-08-10T03:20:34.364Z,16.60
2022-08-10T03:20:38.468Z,16.61
2022-08-10T03:21:27.234Z,16.65
2022-08-10T03:22:26.280Z,16.64
2022-08-10T03:23:26.212Z,16.57
2022-08-10T03:24:30.461Z,16.47
2022-08-10T03:25:27.244Z,16.51
2022-08-10T03:26:26.171Z,16.58
2022-08-10T03:27:26.161Z,16.47
2022-08-10T03:28:26.148Z,16.53
2022-08-10T03:29:26.144Z,16.43
2022-08-10T03:30:32.916Z,16.50
2022-08-10T03:31:27.134Z,16.42
2022-08-10T03:32:26.133Z,16.47
2022-08-10T03:33:26.103Z,16.41
2022-08-10T03:34:33.452Z,16.47
2022-08-10T03:35:26.080Z,16.47
2022-08-10T03:36:42.493Z,16.43
2022-08-10T03:37:27.046Z,16.42
2022-08-10T03:38:26.075Z,16.47
2022-08-10T03:39:26.058Z,16.49
2022-08-10T03:40:26.010Z,16.46
2022-08-10T03:41:27.005Z,16.47
2022-08-10T03:42:26.038Z,16.38
2022-08-10T03:43:26.000Z,16.38
2022-08-10T03:44:25.988Z,16.35
2022-08-10T03:45:25.962Z,16.33
2022-08-10T03:46:25.959Z,16.46
2022-08-10T03:47:25.935Z,16.32
2022-08-10T03:48:45.203Z,16.38
2022-08-10T03:49:26.926Z,16.47
2022-08-10T03:50:45.784Z,16.38
2022-08-10T03:51:26.893Z,16.43
2022-08-10T03:52:25.876Z,16.38
2022-08-10T03:54:04.804Z,16.39
2022-08-10T03:54:26.873Z,16.39
2022-08-10T03:56:27.166Z,16.39
2022-08-10T03:56:31.439Z,16.35
2022-08-10T03:57:25.825Z,16.43
2022-08-10T03:58:25.817Z,16.35
2022-08-10T03:59:25.847Z,16.28
2022-08-10T04:00:25.810Z,16.21
2022-08-10T04:02:45.055Z,16.28
2022-08-10T04:02:52.870Z,16.29
2022-08-10T04:03:29.325Z,16.24
2022-08-10T04:04:26.134Z,16.23
2022-08-10T04:05:25.733Z,16.26
2022-08-10T04:06:26.720Z,16.21
2022-08-10T04:07:25.711Z,16.17
2022-08-10T04:08:25.700Z,16.16
2022-08-10T04:09:42.783Z,16.09
2022-08-10T04:10:26.686Z,16.12
2022-08-10T04:11:25.675Z,16.09
2022-08-10T04:12:25.657Z,16.16
2022-08-10T04:13:25.646Z,16.10
2022-08-10T04:14:38.811Z,16.05
2022-08-10T04:15:26.631Z,16.13
2022-08-10T04:16:25.607Z,16.13
2022-08-10T04:18:01.358Z,16.13
2022-08-10T04:18:26.584Z,16.10
2022-08-10T04:19:25.596Z,16.16
2022-08-10T04:20:25.570Z,16.09
2022-08-10T04:21:25.560Z,16.09
2022-08-10T04:22:25.543Z,16.10
2022-08-10T04:23:25.527Z,16.08
2022-08-10T04:24:29.796Z,16.12
2022-08-10T04:25:26.513Z,16.13
2022-08-10T04:26:25.498Z,16.13
2022-08-10T04:27:25.484Z,16.08
2022-08-10T04:28:25.477Z,16.09
2022-08-10T04:29:25.484Z,16.05
2022-08-10T04:30:27.767Z,16.12
2022-08-10T04:31:25.453Z,16.08
2022-08-10T04:32:25.437Z,16.10
2022-08-10T04:33:25.444Z,16.12
2022-08-10T04:34:25.423Z,16.12
2022-08-10T04:35:25.403Z,16.13
2022-08-10T04:36:25.386Z,16.12
2022-08-10T04:37:25.381Z,16.12
2022-08-10T04:38:25.375Z,16.13
2022-08-10T04:39:25.420Z,16.12
2022-08-10T04:40:29.509Z,16.16
2022-08-10T04:41:25.333Z,16.10
2022-08-10T04:42:25.318Z,16.23
2022-08-10T04:43:25.309Z,16.13
2022-08-10T04:44:25.373Z,16.20
2022-08-10T04:45:25.286Z,16.20
2022-08-10T04:46:55.305Z,16.17
2022-08-10T04:47:57.749Z,16.24
2022-08-10T04:48:43.530Z,16.16
2022-08-10T04:49:32.475Z,16.24
2022-08-10T04:50:26.230Z,16.16
2022-08-10T04:51:25.224Z,16.20
2022-08-10T04:52:25.479Z,16.17
2022-08-10T04:53:25.207Z,16.16
2022-08-10T04:54:25.201Z,16.16
2022-08-10T04:55:25.174Z,16.15
2022-08-10T04:56:31.815Z,16.13
2022-08-10T04:57:26.166Z,16.15
2022-08-10T04:58:25.154Z,16.21
2022-08-10T04:59:25.166Z,16.16
2022-08-10T05:00:25.138Z,16.16
2022-08-10T05:01:25.233Z,16.16
2022-08-10T05:02:30.474Z,16.21
2022-08-10T05:03:26.087Z,16.24
2022-08-10T05:04:36.254Z,16.26
2022-08-10T05:05:26.074Z,16.33
2022-08-10T05:06:25.057Z,16.29
2022-08-10T05:07:25.038Z,16.31
2022-08-10T05:08:25.032Z,16.38
2022-08-10T05:09:25.016Z,16.32
2022-08-10T05:10:25.276Z,16.28
2022-08-10T05:11:24.999Z,16.31
2022-08-10T05:12:24.989Z,16.21
2022-08-10T05:13:24.971Z,16.28
2022-08-10T05:14:24.962Z,16.17
2022-08-10T05:15:24.950Z,16.16
2022-08-10T05:16:31.963Z,16.13
2022-08-10T05:17:25.970Z,16.17
2022-08-10T05:18:24.933Z,16.12
2022-08-10T05:19:25.156Z,16.13
2022-08-10T05:20:25.895Z,16.20
2022-08-10T05:21:56.383Z,16.21
2022-08-10T05:22:25.903Z,16.16
2022-08-10T05:23:24.869Z,16.21
2022-08-10T05:24:24.854Z,16.26
2022-08-10T05:25:24.849Z,16.39
2022-08-10T05:26:24.853Z,16.29
2022-08-10T05:27:24.815Z,16.36
2022-08-10T05:28:24.808Z,16.23
2022-08-10T05:29:25.807Z,16.31
2022-08-10T05:30:24.798Z,16.26
2022-08-10T05:31:24.772Z,16.36
2022-08-10T05:32:24.778Z,16.39
2022-08-10T05:33:24.749Z,16.38
2022-08-10T05:34:24.748Z,16.31
2022-08-10T05:35:24.770Z,16.35
2022-08-10T05:36:24.738Z,16.41
2022-08-10T05:38:08.964Z,16.56
2022-08-10T05:38:25.695Z,16.51
2022-08-10T05:39:30.311Z,16.65
2022-08-10T05:40:25.674Z,16.61
2022-08-10T05:41:24.671Z,16.78
2022-08-10T05:42:24.685Z,16.87
2022-08-10T05:43:24.639Z,16.96
2022-08-10T05:44:24.629Z,17.06
2022-08-10T05:45:24.612Z,17.16
2022-08-10T05:46:24.624Z,17.23
2022-08-10T05:47:24.606Z,17.46
2022-08-10T05:48:41.894Z,17.59
2022-08-10T05:49:25.573Z,17.78
2022-08-10T05:50:24.557Z,17.95
2022-08-10T05:51:24.545Z,17.94
2022-08-10T05:52:24.557Z,18.00
2022-08-10T05:54:02.863Z,18.05
2022-08-10T05:54:25.517Z,18.18
2022-08-10T05:55:24.503Z,18.29
2022-08-10T05:56:24.493Z,18.37
2022-08-10T05:57:24.503Z,18.47
2022-08-10T05:58:24.468Z,18.59
2022-08-10T06:00:10.977Z,18.66
2022-08-10T06:00:36.660Z,18.90
2022-08-10T06:01:25.455Z,19.14
2022-08-10T06:02:33.697Z,19.16
2022-08-10T06:03:25.435Z,19.30
2022-08-10T06:04:24.406Z,19.22
2022-08-10T06:05:24.402Z,19.40
2022-08-10T06:06:25.050Z,19.54
2022-08-10T06:07:24.381Z,19.76
2022-08-10T06:08:26.872Z,19.85
2022-08-10T06:09:24.371Z,20.02
2022-08-10T06:10:32.047Z,20.14
2022-08-10T06:12:26.566Z,20.21
2022-08-10T06:12:29.158Z,20.36
2022-08-10T06:13:30.154Z,20.34
2022-08-10T06:14:28.319Z,20.34
2022-08-10T06:15:50.558Z,20.47
2022-08-10T06:16:25.290Z,20.82
2022-08-10T06:17:24.261Z,21.12
2022-08-10T06:18:24.262Z,21.43
2022-08-10T06:19:24.269Z,21.57
2022-08-10T06:20:24.253Z,21.64
2022-08-10T06:21:24.215Z,21.76
2022-08-10T06:22:24.220Z,21.72
2022-08-10T06:23:24.198Z,21.67
2022-08-10T06:24:25.469Z,21.83
2022-08-10T06:26:09.037Z,22.08
2022-08-10T06:26:25.169Z,22.32
2022-08-10T06:27:34.214Z,22.59
2022-08-10T06:28:25.193Z,22.70
2022-08-10T06:29:24.142Z,22.81
2022-08-10T06:30:24.133Z,22.99
2022-08-10T06:31:24.108Z,23.09
2022-08-10T06:32:24.113Z,23.37
2022-08-10T06:33:24.100Z,23.47
2022-08-10T06:34:24.103Z,23.65
2022-08-10T06:35:24.084Z,23.78
2022-08-10T06:36:24.087Z,23.76
2022-08-10T06:37:24.037Z,24.02
2022-08-10T06:38:24.045Z,24.03
2022-08-10T06:39:36.103Z,24.06
2022-08-10T06:40:25.087Z,24.01
2022-08-10T06:41:24.024Z,24.01
2022-08-10T06:42:25.052Z,24.01
2022-08-10T06:43:23.971Z,23.99
2022-08-10T06:44:23.976Z,24.11
2022-08-10T06:45:23.973Z,24.13
2022-08-10T06:46:23.948Z,23.96
2022-08-10T06:47:23.959Z,23.93
2022-08-10T06:48:23.926Z,23.87
2022-08-10T06:49:23.909Z,23.88
2022-08-10T06:50:44.662Z,23.91
2022-08-10T06:51:24.930Z,23.91
2022-08-10T06:52:23.940Z,24.08
2022-08-10T06:53:23.873Z,24.32
2022-08-10T06:54:24.857Z,24.20
2022-08-10T06:55:40.000Z,24.40
2022-08-10T06:56:36.636Z,24.57
2022-08-10T06:57:24.837Z,24.60
2022-08-10T06:58:26.691Z,24.60
2022-08-10T06:59:23.822Z,24.58
2022-08-10T07:00:23.850Z,24.58
2022-08-10T07:01:24.831Z,24.51
2022-08-10T07:02:23.786Z,24.58
2022-08-10T07:03:23.759Z,24.61
2022-08-10T07:04:32.713Z,24.65
2022-08-10T07:05:24.751Z,24.54
2022-08-10T07:06:23.731Z,24.48
2022-08-10T07:07:23.731Z,24.60
2022-08-10T07:08:23.713Z,24.55
2022-08-10T07:09:23.730Z,24.38
2022-08-10T07:10:23.687Z,24.33
2022-08-10T07:11:23.671Z,24.28
2022-08-10T07:12:23.680Z,24.17
2022-08-10T07:14:15.633Z,24.18
2022-08-10T07:14:24.655Z,24.14
2022-08-10T07:15:23.670Z,24.14
2022-08-10T07:16:24.634Z,24.14
2022-08-10T07:17:23.624Z,24.17
2022-08-10T07:18:23.619Z,24.18
2022-08-10T07:19:23.591Z,24.11
2022-08-10T07:20:23.584Z,24.17
2022-08-10T07:21:23.568Z,24.16
2022-08-10T07:23:27.061Z,24.26
2022-08-10T07:23:57.016Z,24.18
2022-08-10T07:24:24.538Z,24.28
2022-08-10T07:25:23.538Z,24.26
2022-08-10T07:26:23.528Z,24.30
2022-08-10T07:27:23.511Z,24.26
2022-08-10T07:28:23.497Z,24.32
2022-08-10T07:29:26.675Z,24.30
2022-08-10T07:30:24.487Z,24.26
2022-08-10T07:31:49.291Z,24.40
2022-08-10T07:32:24.448Z,24.40
2022-08-10T07:33:23.467Z,24.42
2022-08-10T07:34:29.442Z,24.42
2022-08-10T07:35:23.444Z,24.50
2022-08-10T07:36:23.407Z,24.50
2022-08-10T07:37:23.417Z,24.61
2022-08-10T07:38:23.397Z,24.57
2022-08-10T07:39:57.961Z,24.57
2022-08-10T07:40:24.409Z,24.58
2022-08-10T07:41:23.346Z,24.55
2022-08-10T07:42:23.367Z,24.60
2022-08-10T07:43:23.326Z,24.65
2022-08-10T07:44:23.318Z,24.55
2022-08-10T07:45:23.323Z,24.55
2022-08-10T07:46:23.303Z,24.63
2022-08-10T07:47:52.345Z,24.58
2022-08-10T07:48:24.306Z,24.63
2022-08-10T07:49:23.263Z,24.73
2022-08-10T07:50:23.269Z,24.76
2022-08-10T07:51:23.240Z,24.92
2022-08-10T07:52:23.239Z,24.95
2022-08-10T07:53:23.290Z,25.01
2022-08-10T07:54:23.212Z,24.96
2022-08-10T07:56:02.125Z,24.96
2022-08-10T07:56:45.840Z,24.98
2022-08-10T07:57:30.899Z,25.08
2022-08-10T07:58:24.203Z,25.13
2022-08-10T07:59:30.229Z,25.28
2022-08-10T08:00:23.144Z,25.22
2022-08-10T08:01:23.244Z,25.33
2022-08-10T08:02:23.128Z,25.29
2022-08-10T08:03:23.109Z,25.40
2022-08-10T08:04:23.112Z,25.47
2022-08-10T08:05:29.877Z,25.54
2022-08-10T08:06:24.097Z,25.55
2022-08-10T08:07:23.064Z,25.44
2022-08-10T08:08:23.066Z,25.63
2022-08-10T08:09:23.047Z,25.72
2022-08-10T08:10:23.036Z,25.70
2022-08-10T08:11:25.472Z,25.68
2022-08-10T08:12:23.016Z,25.80
2022-08-10T08:13:23.016Z,25.85
2022-08-10T08:14:22.994Z,25.78
2022-08-10T08:16:19.960Z,25.91
2022-08-10T08:16:23.978Z,25.80
2022-08-10T08:17:22.968Z,25.95
2022-08-10T08:18:25.580Z,26.03
2022-08-10T08:19:26.623Z,25.98
2022-08-10T08:20:22.925Z,26.09
2022-08-10T08:24:06.975Z,26.15
2022-08-10T08:24:10.071Z,26.09
2022-08-10T08:24:11.140Z,26.23
2022-08-10T08:24:32.243Z,26.33
2022-08-10T08:25:23.868Z,26.36
2022-08-10T08:26:22.863Z,26.36
2022-08-10T08:27:22.864Z,26.21
2022-08-10T08:28:22.842Z,26.36
2022-08-10T08:29:22.834Z,26.34
2022-08-10T08:30:26.832Z,26.31
2022-08-10T08:31:23.816Z,26.51
2022-08-10T08:32:22.814Z,26.48
2022-08-10T08:33:41.155Z,26.51
2022-08-10T08:34:23.788Z,26.70
2022-08-10T08:35:22.758Z,26.74
2022-08-10T08:36:22.754Z,26.75
2022-08-10T08:38:33.027Z,26.92
2022-08-10T08:38:33.406Z,26.95
2022-08-10T08:39:22.782Z,26.97
2022-08-10T08:40:22.706Z,26.96
2022-08-10T08:41:22.700Z,27.12
2022-08-10T08:42:22.696Z,27.20
2022-08-10T08:43:22.679Z,27.36
2022-08-10T08:44:22.686Z,27.30
2022-08-10T08:45:22.658Z,27.35
2022-08-10T08:46:22.642Z,27.39
2022-08-10T08:48:04.117Z,27.39
2022-08-10T08:48:23.620Z,27.63
2022-08-10T08:50:07.895Z,27.60
2022-08-10T08:50:23.596Z,27.65
2022-08-10T08:52:09.832Z,27.71
2022-08-10T08:52:23.583Z,27.78
2022-08-10T08:53:22.941Z,27.86
2022-08-10T08:54:22.580Z,27.71
2022-08-10T08:56:03.841Z,27.65
2022-08-10T08:56:23.530Z,27.82
2022-08-10T08:57:49.080Z,27.83
2022-08-10T08:58:23.508Z,27.87
2022-08-10T08:59:22.541Z,27.89
2022-08-10T09:00:22.499Z,27.96
2022-08-10T09:01:22.538Z,28.00
2022-08-10T09:02:22.467Z,28.08
2022-08-10T09:03:27.556Z,28.01
2022-08-10T09:04:23.458Z,28.02
2022-08-10T09:05:22.497Z,28.02
2022-08-10T09:06:22.424Z,28.04
2022-08-10T09:07:59.758Z,28.08
2022-08-10T09:08:23.400Z,28.27
2022-08-10T09:09:22.399Z,28.15
2022-08-10T09:10:22.380Z,28.32
2022-08-10T09:11:22.388Z,28.33
2022-08-10T09:12:22.373Z,28.47
2022-08-10T09:13:22.352Z,28.44
2022-08-10T09:14:25.715Z,28.57
2022-08-10T09:15:39.641Z,28.48
2022-08-10T09:16:23.344Z,28.63
2022-08-10T09:17:22.307Z,28.52
2022-08-10T09:18:22.295Z,28.49
2022-08-10T09:19:35.517Z,28.59
2022-08-10T09:20:23.328Z,28.66
2022-08-10T09:21:22.269Z,28.63
2022-08-10T09:22:22.251Z,28.64
2022-08-10T09:23:22.242Z,28.81
2022-08-10T09:24:23.224Z,28.85
2022-08-10T09:25:22.287Z,28.76
2022-08-10T09:26:22.210Z,28.78
2022-08-10T09:27:22.199Z,28.84
2022-08-10T09:28:22.181Z,28.88
2022-08-10T09:29:22.173Z,29.01
2022-08-10T09:30:29.365Z,29.01
2022-08-10T09:31:23.548Z,28.97
2022-08-10T09:36:14.793Z,29.07
2022-08-10T09:36:21.166Z,28.93
2022-08-10T09:36:21.259Z,28.75
2022-08-10T09:36:28.094Z,28.79
2022-08-10T09:36:33.268Z,28.85
2022-08-10T09:37:23.083Z,28.82
2022-08-10T09:38:23.070Z,28.81
2022-08-10T09:40:58.321Z,28.86
2022-08-10T09:40:59.956Z,28.82
2022-08-10T09:41:23.102Z,28.91
2022-08-10T09:42:22.030Z,29.04
2022-08-10T09:43:26.250Z,29.27
2022-08-10T09:44:22.005Z,29.20
2022-08-10T09:45:21.998Z,29.20
2022-08-10T09:46:22.000Z,29.29
2022-08-10T09:47:21.981Z,29.26
2022-08-10T09:48:22.968Z,29.23
2022-08-10T09:49:25.790Z,29.12
2022-08-10T09:50:22.955Z,29.14
2022-08-10T09:51:44.346Z,29.20
2022-08-10T09:52:22.920Z,29.24
2022-08-10T09:53:21.912Z,29.29
2022-08-10T09:57:17.813Z,29.24
2022-08-10T09:59:26.874Z,29.23
2022-08-10T10:04:01.603Z,29.42
2022-08-10T10:05:03.479Z,29.39
2022-08-10T10:06:01.049Z,29.57
2022-08-10T10:07:00.661Z,29.50
2022-08-10T10:08:19.060Z,29.45
2022-08-10T10:09:10.705Z,29.50
2022-08-10T10:10:57.667Z,29.35
2022-08-10T10:17:30.893Z,29.39
2022-08-10T10:19:08.935Z,29.57
2022-08-10T10:20:09.369Z,29.54
2022-08-10T10:21:11.376Z,29.59
2022-08-10T10:24:58.465Z,29.57
2022-08-10T10:33:51.599Z,29.27
2022-08-10T10:35:03.205Z,29.17
2022-08-10T10:37:09.861Z,29.23
2022-08-10T10:41:27.343Z,29.23
2022-08-10T10:42:23.312Z,29.31
2022-08-10T10:43:12.699Z,29.22
2022-08-10T10:45:31.072Z,29.34
2022-08-10T10:48:42.866Z,29.47
2022-08-10T10:49:42.837Z,29.39
2022-08-10T10:50:42.826Z,29.42
2022-08-10T10:58:44.364Z,29.66
2022-08-10T10:59:54.959Z,29.65
2022-08-10T11:00:45.315Z,29.66
2022-08-10T11:01:44.386Z,29.68
2022-08-10T11:02:44.292Z,29.73
2022-08-10T11:03:44.282Z,29.65
2022-08-10T11:04:44.286Z,29.71
2022-08-10T11:05:44.266Z,29.81
2022-08-10T11:06:44.250Z,29.82
2022-08-10T11:07:44.234Z,29.73
2022-08-10T11:08:45.226Z,29.81
2022-08-10T11:10:05.527Z,29.81
2022-08-10T11:10:47.533Z,29.72
2022-08-10T11:12:02.160Z,29.54
2022-08-10T11:12:46.943Z,29.56
2022-08-10T11:14:24.409Z,29.69
2022-08-10T11:14:45.175Z,29.72
2022-08-10T11:15:47.696Z,29.68
2022-08-10T11:16:44.142Z,29.69
2022-08-10T11:17:44.124Z,29.81
2022-08-10T11:18:44.124Z,29.78
2022-08-10T11:20:01.932Z,29.69
2022-08-10T11:20:45.113Z,29.84
2022-08-10T11:21:44.112Z,29.87
2022-08-10T11:32:20.518Z,29.59
2022-08-10T11:33:30.925Z,29.66
2022-08-10T11:34:47.704Z,29.69
2022-08-10T11:35:35.757Z,29.59
2022-08-10T11:36:13.754Z,29.42
2022-08-10T11:37:13.823Z,29.27
2022-08-10T11:38:29.989Z,29.20
2022-08-10T11:39:15.059Z,29.16
2022-08-10T11:40:13.942Z,29.17
2022-08-10T11:42:06.477Z,29.31
2022-08-10T11:42:24.242Z,29.31
2022-08-10T11:43:15.004Z,29.36
2022-08-10T11:44:13.648Z,29.42
2022-08-10T11:45:13.622Z,29.39
2022-08-10T11:46:27.648Z,29.44
2022-08-10T11:47:15.299Z,29.31
2022-08-10T11:48:53.853Z,29.39
2022-08-10T11:49:22.262Z,29.45
2022-08-10T11:50:14.805Z,29.41
2022-08-10T11:52:38.169Z,29.50
2022-08-10T11:53:38.930Z,29.56
2022-08-10T11:54:38.001Z,29.50
2022-08-10T11:55:38.008Z,29.44
2022-08-10T11:56:37.992Z,29.50
2022-08-10T11:57:54.696Z,29.56
2022-08-10T11:58:38.970Z,29.45
2022-08-10T11:59:37.949Z,29.38
2022-08-10T12:01:14.146Z,29.44
2022-08-10T12:01:42.298Z,29.47
2022-08-10T12:02:39.936Z,29.50
2022-08-10T12:05:56.674Z,29.66
2022-08-10T12:06:56.854Z,29.60
2022-08-10T12:10:05.551Z,29.78
2022-08-10T12:10:06.145Z,29.72
2022-08-10T12:10:07.080Z,29.82
2022-08-10T12:11:23.991Z,29.72
2022-08-10T12:11:58.320Z,29.76
2022-08-10T12:13:20.886Z,29.71
2022-08-10T12:14:19.560Z,29.68
2022-08-10T12:14:57.808Z,29.63
2022-08-10T12:15:56.706Z,29.72
2022-08-10T12:16:57.788Z,29.78
2022-08-10T12:17:56.613Z,29.79
2022-08-10T12:18:59.981Z,29.73
2022-08-10T12:19:59.552Z,29.65
2022-08-10T12:20:58.304Z,29.69
2022-08-10T12:21:56.524Z,29.73
2022-08-10T12:22:56.499Z,29.76
2022-08-10T12:24:03.157Z,29.71
2022-08-10T12:24:57.768Z,29.72
2022-08-10T12:25:58.643Z,29.65
2022-08-10T12:26:56.452Z,29.84
2022-08-10T12:27:56.437Z,29.79
2022-08-10T12:28:56.439Z,29.72
2022-08-10T12:29:56.413Z,29.71
2022-08-10T12:30:56.403Z,29.68
2022-08-10T12:31:56.390Z,29.71
2022-08-10T12:32:56.871Z,29.65
2022-08-10T12:34:01.786Z,29.61
2022-08-10T12:34:56.354Z,29.56
2022-08-10T12:36:17.442Z,29.47
2022-08-10T12:36:57.359Z,29.41
2022-08-10T12:37:56.333Z,29.44
2022-08-10T12:38:56.336Z,29.54
2022-08-10T12:40:12.004Z,29.41
2022-08-10T12:40:57.288Z,29.56
2022-08-10T12:41:56.299Z,29.59
2022-08-10T12:43:13.422Z,29.50
2022-08-10T12:44:07.032Z,29.56
2022-08-10T12:44:57.263Z,29.57
2022-08-10T12:45:56.236Z,29.49
2022-08-10T12:46:56.252Z,29.69
2022-08-10T12:47:56.218Z,29.50
2022-08-10T12:48:56.205Z,29.57
2022-08-10T12:50:13.798Z,29.60
2022-08-10T12:50:57.182Z,29.54
2022-08-10T12:51:56.173Z,29.59
2022-08-10T12:52:56.163Z,29.61
2022-08-10T12:53:56.169Z,29.72
2022-08-10T12:54:56.177Z,29.57
2022-08-10T12:55:56.128Z,29.56
2022-08-10T12:56:56.123Z,29.56
2022-08-10T12:57:56.126Z,29.61
2022-08-10T12:58:59.482Z,29.71
2022-08-10T12:59:56.100Z,29.75
2022-08-10T13:01:15.074Z,29.86
2022-08-10T13:02:07.664Z,29.81
2022-08-10T13:02:57.087Z,29.84
2022-08-10T13:04:23.371Z,29.81
2022-08-10T13:04:57.064Z,29.84
2022-08-10T13:06:02.294Z,29.84
2022-08-10T13:06:56.004Z,29.88
2022-08-10T13:08:25.259Z,29.73
2022-08-10T13:08:56.981Z,29.93
2022-08-10T13:09:56.967Z,29.86
2022-08-10T13:10:55.975Z,29.93
2022-08-10T13:12:35.688Z,29.98
2022-08-10T13:12:56.944Z,29.97
2022-08-10T13:13:55.929Z,30.02
2022-08-10T13:14:55.920Z,29.97
2022-08-10T13:15:55.973Z,30.00
2022-08-10T13:16:55.894Z,30.05
2022-08-10T13:17:55.887Z,30.10
2022-08-10T13:18:55.890Z,30.15
2022-08-10T13:19:59.975Z,30.00
2022-08-10T13:20:56.891Z,30.06
2022-08-10T13:21:55.843Z,29.98
2022-08-10T13:22:55.829Z,29.76
2022-08-10T13:24:04.313Z,29.75
2022-08-10T13:24:56.310Z,29.60
2022-08-10T13:25:55.807Z,29.59
2022-08-10T13:27:25.883Z,29.71
2022-08-10T13:28:02.423Z,29.79
2022-08-10T13:28:56.770Z,29.91
2022-08-10T13:30:04.067Z,29.93
2022-08-10T13:30:55.764Z,29.91
2022-08-10T13:32:10.113Z,29.94
2022-08-10T13:32:56.750Z,29.95
2022-08-10T13:34:40.217Z,30.05
2022-08-10T13:34:56.698Z,30.13
2022-08-10T13:35:55.789Z,30.12
2022-08-10T13:36:55.680Z,30.10
2022-08-10T13:37:55.668Z,30.09
2022-08-10T13:38:55.675Z,30.06
2022-08-10T13:39:59.441Z,29.98
2022-08-10T13:40:55.639Z,30.06
2022-08-10T13:41:55.635Z,30.19
2022-08-10T13:42:55.611Z,30.12
2022-08-10T13:43:55.603Z,30.23
2022-08-10T13:44:55.612Z,30.25
2022-08-10T13:45:55.593Z,30.21